sensor_id;sensor_type;location;lat;lon;timestamp;pressure;altitude;pressure_sealevel;temperature;humidity
70841;BME280;58465;51.534;9.934;2023-05-25T00:01:48;100752.59;;;12.20;67.00
70841;BME280;58465;51.534;9.934;2023-05-25T00:04:13;100752.53;;;12.23;67.12
70841;BME280;58465;51.534;9.934;2023-05-25T00:06:41;100763.38;;;12.17;66.94
70841;BME280;58465;51.534;9.934;2023-05-25T00:09:06;100766.94;;;12.16;66.73
70841;BME280;58465;51.534;9.934;2023-05-25T00:11:32;100767.06;;;12.10;67.48
70841;BME280;58465;51.534;9.934;2023-05-25T00:13:57;100765.38;;;12.03;67.88
70841;BME280;58465;51.534;9.934;2023-05-25T00:16:22;100749.28;;;12.06;67.48
70841;BME280;58465;51.534;9.934;2023-05-25T00:18:48;100763.56;;;12.05;67.69
70841;BME280;58465;51.534;9.934;2023-05-25T00:21:13;100769.84;;;12.04;67.74
70841;BME280;58465;51.534;9.934;2023-05-25T00:23:39;100759.25;;;11.96;68.21
70841;BME280;58465;51.534;9.934;2023-05-25T00:26:05;100761.19;;;11.88;68.51
70841;BME280;58465;51.534;9.934;2023-05-25T00:28:30;100760.25;;;11.91;68.17
70841;BME280;58465;51.534;9.934;2023-05-25T00:30:55;100761.25;;;11.83;68.40
70841;BME280;58465;51.534;9.934;2023-05-25T00:33:21;100763.91;;;11.83;68.62
70841;BME280;58465;51.534;9.934;2023-05-25T00:35:46;100763.03;;;11.83;68.59
70841;BME280;58465;51.534;9.934;2023-05-25T00:38:13;100755.88;;;11.83;68.70
70841;BME280;58465;51.534;9.934;2023-05-25T00:40:39;100767.25;;;11.99;68.27
70841;BME280;58465;51.534;9.934;2023-05-25T00:43:07;100760.84;;;12.09;68.18
70841;BME280;58465;51.534;9.934;2023-05-25T00:45:32;100750.88;;;12.17;67.66
70841;BME280;58465;51.534;9.934;2023-05-25T00:47:58;100756.19;;;12.20;67.47
70841;BME280;58465;51.534;9.934;2023-05-25T00:50:37;100749.84;;;12.24;67.60
70841;BME280;58465;51.534;9.934;2023-05-25T00:53:04;100754.22;;;12.29;67.53
70841;BME280;58465;51.534;9.934;2023-05-25T00:55:32;100753.19;;;12.37;67.11
70841;BME280;58465;51.534;9.934;2023-05-25T00:58:02;100756.59;;;12.45;66.74
70841;BME280;58465;51.534;9.934;2023-05-25T01:00:29;100757.56;;;12.41;66.82
70841;BME280;58465;51.534;9.934;2023-05-25T01:02:55;100746.81;;;12.43;66.60
70841;BME280;58465;51.534;9.934;2023-05-25T01:05:24;100757.34;;;12.52;66.58
70841;BME280;58465;51.534;9.934;2023-05-25T01:07:54;100759.97;;;12.55;66.50
70841;BME280;58465;51.534;9.934;2023-05-25T01:10:21;100759.13;;;12.53;66.35
70841;BME280;58465;51.534;9.934;2023-05-25T01:12:50;100759.28;;;12.45;66.33
70841;BME280;58465;51.534;9.934;2023-05-25T01:15:17;100754.13;;;12.33;66.84
70841;BME280;58465;51.534;9.934;2023-05-25T01:17:43;100753.44;;;12.22;67.12
70841;BME280;58465;51.534;9.934;2023-05-25T01:20:09;100755.28;;;12.20;67.20
70841;BME280;58465;51.534;9.934;2023-05-25T01:22:48;100753.72;;;12.07;67.53
70841;BME280;58465;51.534;9.934;2023-05-25T01:25:24;100757.63;;;11.86;68.09
70841;BME280;58465;51.534;9.934;2023-05-25T01:28:05;100762.13;;;11.84;67.94
70841;BME280;58465;51.534;9.934;2023-05-25T01:30:32;100763.31;;;11.63;68.62
70841;BME280;58465;51.534;9.934;2023-05-25T01:32:59;100763.56;;;11.46;69.25
70841;BME280;58465;51.534;9.934;2023-05-25T01:35:25;100764.72;;;11.29;69.58
70841;BME280;58465;51.534;9.934;2023-05-25T01:37:51;100763.94;;;11.24;70.09
70841;BME280;58465;51.534;9.934;2023-05-25T01:40:17;100762.97;;;11.26;69.88
70841;BME280;58465;51.534;9.934;2023-05-25T01:42:42;100769.31;;;11.21;70.09
70841;BME280;58465;51.534;9.934;2023-05-25T01:45:12;100761.16;;;11.28;69.89
70841;BME280;58465;51.534;9.934;2023-05-25T01:48:00;100755.72;;;11.34;69.89
70841;BME280;58465;51.534;9.934;2023-05-25T01:50:50;100750.28;;;11.43;69.30
70841;BME280;58465;51.534;9.934;2023-05-25T01:53:40;100756.44;;;11.47;69.01
70841;BME280;58465;51.534;9.934;2023-05-25T01:56:08;100757.34;;;11.44;68.88
70841;BME280;58465;51.534;9.934;2023-05-25T01:58:38;100751.34;;;11.29;69.55
70841;BME280;58465;51.534;9.934;2023-05-25T02:01:07;100755.84;;;11.25;69.17
70841;BME280;58465;51.534;9.934;2023-05-25T02:03:32;100754.13;;;11.23;69.29
70841;BME280;58465;51.534;9.934;2023-05-25T02:05:57;100756.03;;;11.13;69.63
70841;BME280;58465;51.534;9.934;2023-05-25T02:08:23;100749.84;;;11.09;70.09
70841;BME280;58465;51.534;9.934;2023-05-25T02:10:48;100756.09;;;11.08;69.71
70841;BME280;58465;51.534;9.934;2023-05-25T02:13:13;100759.66;;;11.07;69.82
70841;BME280;58465;51.534;9.934;2023-05-25T02:15:39;100765.13;;;11.00;70.00
70841;BME280;58465;51.534;9.934;2023-05-25T02:18:04;100762.47;;;10.97;70.45
70841;BME280;58465;51.534;9.934;2023-05-25T02:20:30;100757.06;;;11.03;70.17
70841;BME280;58465;51.534;9.934;2023-05-25T02:22:55;100758.00;;;10.97;70.35
70841;BME280;58465;51.534;9.934;2023-05-25T02:25:20;100761.66;;;10.93;70.55
70841;BME280;58465;51.534;9.934;2023-05-25T02:27:45;100758.22;;;10.84;70.76
70841;BME280;58465;51.534;9.934;2023-05-25T02:30:11;100755.69;;;10.71;70.76
70841;BME280;58465;51.534;9.934;2023-05-25T02:32:36;100761.06;;;10.67;71.29
70841;BME280;58465;51.534;9.934;2023-05-25T02:35:02;100759.47;;;10.51;71.68
70841;BME280;58465;51.534;9.934;2023-05-25T02:37:27;100753.31;;;10.43;71.95
70841;BME280;58465;51.534;9.934;2023-05-25T02:39:52;100750.69;;;10.39;71.92
70841;BME280;58465;51.534;9.934;2023-05-25T02:42:17;100751.53;;;10.46;71.43
70841;BME280;58465;51.534;9.934;2023-05-25T02:44:44;100754.16;;;10.48;71.65
70841;BME280;58465;51.534;9.934;2023-05-25T02:47:16;100756.78;;;10.54;71.32
70841;BME280;58465;51.534;9.934;2023-05-25T02:49:43;100754.22;;;10.43;71.59
70841;BME280;58465;51.534;9.934;2023-05-25T02:52:08;100754.22;;;10.43;71.83
70841;BME280;58465;51.534;9.934;2023-05-25T02:54:33;100755.13;;;10.40;71.71
70841;BME280;58465;51.534;9.934;2023-05-25T02:56:59;100761.31;;;10.46;71.35
70841;BME280;58465;51.534;9.934;2023-05-25T02:59:27;100767.47;;;10.51;71.25
70841;BME280;58465;51.534;9.934;2023-05-25T03:01:52;100772.00;;;10.47;71.19
70841;BME280;58465;51.534;9.934;2023-05-25T03:04:17;100762.25;;;10.38;71.30
70841;BME280;58465;51.534;9.934;2023-05-25T03:06:42;100765.88;;;10.33;71.62
70841;BME280;58465;51.534;9.934;2023-05-25T03:09:09;100761.56;;;10.21;72.08
70841;BME280;58465;51.534;9.934;2023-05-25T03:11:35;100763.31;;;10.22;72.32
70841;BME280;58465;51.534;9.934;2023-05-25T03:14:00;100765.16;;;10.16;72.15
70841;BME280;58465;51.534;9.934;2023-05-25T03:16:25;100769.69;;;10.04;72.45
70841;BME280;58465;51.534;9.934;2023-05-25T03:18:51;100769.63;;;10.12;72.44
70841;BME280;58465;51.534;9.934;2023-05-25T03:21:16;100774.88;;;10.23;72.04
70841;BME280;58465;51.534;9.934;2023-05-25T03:23:41;100774.88;;;10.23;72.17
70841;BME280;58465;51.534;9.934;2023-05-25T03:26:07;100766.78;;;10.30;72.00
70841;BME280;58465;51.534;9.934;2023-05-25T03:28:32;100778.31;;;10.37;71.78
70841;BME280;58465;51.534;9.934;2023-05-25T03:30:57;100777.38;;;10.43;71.52
70841;BME280;58465;51.534;9.934;2023-05-25T03:33:23;100787.16;;;10.44;71.29
70841;BME280;58465;51.534;9.934;2023-05-25T03:35:48;100782.63;;;10.49;71.46
70841;BME280;58465;51.534;9.934;2023-05-25T03:38:13;100799.50;;;10.57;71.06
70841;BME280;58465;51.534;9.934;2023-05-25T03:40:38;100791.38;;;10.66;70.87
70841;BME280;58465;51.534;9.934;2023-05-25T03:43:04;100795.75;;;10.73;70.43
70841;BME280;58465;51.534;9.934;2023-05-25T03:45:29;100796.53;;;10.83;69.98
70841;BME280;58465;51.534;9.934;2023-05-25T03:47:54;100795.56;;;10.88;70.25
70841;BME280;58465;51.534;9.934;2023-05-25T03:50:20;100799.88;;;10.98;69.54
70841;BME280;58465;51.534;9.934;2023-05-25T03:52:45;100805.09;;;11.10;69.22
70841;BME280;58465;51.534;9.934;2023-05-25T03:55:11;100813.91;;;11.15;68.91
70841;BME280;58465;51.534;9.934;2023-05-25T03:57:39;100820.09;;;11.24;68.78
70841;BME280;58465;51.534;9.934;2023-05-25T04:00:05;100828.94;;;11.27;68.63
70841;BME280;58465;51.534;9.934;2023-05-25T04:02:30;100822.56;;;11.36;68.95
70841;BME280;58465;51.534;9.934;2023-05-25T04:04:55;100826.91;;;11.46;68.21
70841;BME280;58465;51.534;9.934;2023-05-25T04:07:21;100826.75;;;11.57;68.14
70841;BME280;58465;51.534;9.934;2023-05-25T04:09:46;100818.72;;;11.57;67.86
70841;BME280;58465;51.534;9.934;2023-05-25T04:12:11;100829.41;;;11.57;67.79
70841;BME280;58465;51.534;9.934;2023-05-25T04:14:37;100835.69;;;11.56;68.14
70841;BME280;58465;51.534;9.934;2023-05-25T04:17:02;100837.31;;;11.67;67.67
70841;BME280;58465;51.534;9.934;2023-05-25T04:19:27;100829.28;;;11.67;67.29
70841;BME280;58465;51.534;9.934;2023-05-25T04:21:52;100822.13;;;11.69;67.33
70841;BME280;58465;51.534;9.934;2023-05-25T04:24:18;100825.59;;;11.74;67.26
70841;BME280;58465;51.534;9.934;2023-05-25T04:26:43;100816.66;;;11.78;67.45
70841;BME280;58465;51.534;9.934;2023-05-25T04:29:11;100823.63;;;11.88;67.10
70841;BME280;58465;51.534;9.934;2023-05-25T04:31:37;100828.97;;;11.90;66.89
70841;BME280;58465;51.534;9.934;2023-05-25T04:34:03;100826.50;;;11.75;67.67
70841;BME280;58465;51.534;9.934;2023-05-25T04:36:28;100828.22;;;11.80;67.69
70841;BME280;58465;51.534;9.934;2023-05-25T04:38:56;100836.03;;;11.94;67.56
70841;BME280;58465;51.534;9.934;2023-05-25T04:41:22;100825.19;;;12.02;67.00
70841;BME280;58465;51.534;9.934;2023-05-25T04:43:47;100833.91;;;12.16;66.92
70841;BME280;58465;51.534;9.934;2023-05-25T04:46:14;100832.91;;;12.21;66.67
70841;BME280;58465;51.534;9.934;2023-05-25T04:48:41;100837.34;;;12.22;66.45
70841;BME280;58465;51.534;9.934;2023-05-25T04:51:07;100836.63;;;12.13;66.62
70841;BME280;58465;51.534;9.934;2023-05-25T04:53:34;100836.47;;;12.22;66.71
70841;BME280;58465;51.534;9.934;2023-05-25T04:56:00;100831.69;;;12.41;66.02
70841;BME280;58465;51.534;9.934;2023-05-25T04:58:25;100834.25;;;12.48;65.88
70841;BME280;58465;51.534;9.934;2023-05-25T05:00:53;100834.28;;;12.47;66.20
70841;BME280;58465;51.534;9.934;2023-05-25T05:03:18;100839.16;;;12.73;65.49
70841;BME280;58465;51.534;9.934;2023-05-25T05:05:44;100853.56;;;12.67;65.48
70841;BME280;58465;51.534;9.934;2023-05-25T05:08:09;100846.31;;;12.72;65.14
70841;BME280;58465;51.534;9.934;2023-05-25T05:10:35;100857.75;;;12.31;65.90
70841;BME280;58465;51.534;9.934;2023-05-25T05:13:00;100854.19;;;12.31;66.31
70841;BME280;58465;51.534;9.934;2023-05-25T05:15:25;100858.44;;;12.42;65.74
70841;BME280;58465;51.534;9.934;2023-05-25T05:17:50;100861.69;;;12.61;65.43
70841;BME280;58465;51.534;9.934;2023-05-25T05:20:16;100861.47;;;12.73;64.76
70841;BME280;58465;51.534;9.934;2023-05-25T05:22:41;100865.69;;;12.88;64.59
70841;BME280;58465;51.534;9.934;2023-05-25T05:25:07;100869.94;;;12.98;64.21
70841;BME280;58465;51.534;9.934;2023-05-25T05:27:33;100872.34;;;13.12;63.95
70841;BME280;58465;51.534;9.934;2023-05-25T05:29:58;100873.97;;;13.22;63.83
70841;BME280;58465;51.534;9.934;2023-05-25T05:32:23;100881.13;;;13.21;64.03
70841;BME280;58465;51.534;9.934;2023-05-25T05:34:49;100881.38;;;13.08;65.29
70841;BME280;58465;51.534;9.934;2023-05-25T05:37:14;100882.81;;;13.27;64.80
70841;BME280;58465;51.534;9.934;2023-05-25T05:39:39;100883.94;;;13.58;64.01
70841;BME280;58465;51.534;9.934;2023-05-25T05:42:05;100894.84;;;13.51;64.64
70841;BME280;58465;51.534;9.934;2023-05-25T05:44:30;100894.06;;;13.86;63.41
70841;BME280;58465;51.534;9.934;2023-05-25T05:46:56;100905.84;;;14.19;62.44
70841;BME280;58465;51.534;9.934;2023-05-25T05:49:25;100901.44;;;13.76;63.61
70841;BME280;58465;51.534;9.934;2023-05-25T05:51:51;100897.44;;;13.95;63.62
70841;BME280;58465;51.534;9.934;2023-05-25T05:54:16;100900.69;;;13.69;64.17
70841;BME280;58465;51.534;9.934;2023-05-25T05:56:41;100909.19;;;13.50;64.82
70841;BME280;58465;51.534;9.934;2023-05-25T05:59:06;100912.03;;;13.42;65.21
70841;BME280;58465;51.534;9.934;2023-05-25T06:01:32;100914.31;;;13.60;64.81
70841;BME280;58465;51.534;9.934;2023-05-25T06:03:57;100909.44;;;13.36;65.28
70841;BME280;58465;51.534;9.934;2023-05-25T06:06:23;100921.06;;;13.36;65.44
70841;BME280;58465;51.534;9.934;2023-05-25T06:08:49;100925.78;;;13.25;65.69
70841;BME280;58465;51.534;9.934;2023-05-25T06:11:14;100926.19;;;13.49;64.89
70841;BME280;58465;51.534;9.934;2023-05-25T06:13:39;100921.84;;;13.43;65.37
70841;BME280;58465;51.534;9.934;2023-05-25T06:16:05;100921.50;;;13.15;66.14
70841;BME280;58465;51.534;9.934;2023-05-25T06:18:30;100925.63;;;13.33;65.47
70841;BME280;58465;51.534;9.934;2023-05-25T06:20:56;100931.09;;;13.27;65.67
70841;BME280;58465;51.534;9.934;2023-05-25T06:23:21;100927.22;;;13.43;65.01
70841;BME280;58465;51.534;9.934;2023-05-25T06:25:46;100931.56;;;13.49;64.60
70841;BME280;58465;51.534;9.934;2023-05-25T06:28:12;100929.28;;;13.72;63.94
70841;BME280;58465;51.534;9.934;2023-05-25T06:30:37;100932.25;;;13.58;64.17
70841;BME280;58465;51.534;9.934;2023-05-25T06:33:02;100934.63;;;13.73;63.63
70841;BME280;58465;51.534;9.934;2023-05-25T06:35:28;100933.34;;;13.91;62.76
70841;BME280;58465;51.534;9.934;2023-05-25T06:37:54;100934.34;;;13.86;63.19
70841;BME280;58465;51.534;9.934;2023-05-25T06:40:20;100935.75;;;14.03;62.56
70841;BME280;58465;51.534;9.934;2023-05-25T06:42:45;100938.56;;;14.36;61.66
70841;BME280;58465;51.534;9.934;2023-05-25T06:45:10;100940.66;;;14.23;61.59
70841;BME280;58465;51.534;9.934;2023-05-25T06:47:36;100936.72;;;14.76;60.23
70841;BME280;58465;51.534;9.934;2023-05-25T06:50:02;100937.25;;;15.23;58.88
70841;BME280;58465;51.534;9.934;2023-05-25T06:52:28;100930.88;;;14.93;59.49
70841;BME280;58465;51.534;9.934;2023-05-25T06:54:54;100940.38;;;14.72;60.00
70841;BME280;58465;51.534;9.934;2023-05-25T06:57:20;100934.84;;;14.80;60.00
70841;BME280;58465;51.534;9.934;2023-05-25T06:59:45;100941.91;;;15.18;58.57
70841;BME280;58465;51.534;9.934;2023-05-25T07:02:10;100935.72;;;15.14;58.41
70841;BME280;58465;51.534;9.934;2023-05-25T07:04:36;100942.63;;;15.23;58.19
70841;BME280;58465;51.534;9.934;2023-05-25T07:07:02;100943.31;;;14.99;58.58
70841;BME280;58465;51.534;9.934;2023-05-25T07:09:27;100945.16;;;14.61;59.85
70841;BME280;58465;51.534;9.934;2023-05-25T07:11:53;100950.84;;;14.49;60.11
70841;BME280;58465;51.534;9.934;2023-05-25T07:14:19;100946.34;;;14.85;59.13
70841;BME280;58465;51.534;9.934;2023-05-25T07:16:44;100950.28;;;15.06;58.72
70841;BME280;58465;51.534;9.934;2023-05-25T07:19:10;100933.44;;;15.32;58.00
70841;BME280;58465;51.534;9.934;2023-05-25T07:21:35;100932.53;;;15.31;58.34
70841;BME280;58465;51.534;9.934;2023-05-25T07:24:02;100935.56;;;15.19;58.22
70841;BME280;58465;51.534;9.934;2023-05-25T07:26:27;100948.69;;;14.63;59.10
70841;BME280;58465;51.534;9.934;2023-05-25T07:28:52;100948.38;;;14.38;60.28
70841;BME280;58465;51.534;9.934;2023-05-25T07:31:18;100956.66;;;14.29;60.73
70841;BME280;58465;51.534;9.934;2023-05-25T07:33:43;100955.56;;;14.39;60.44
70841;BME280;58465;51.534;9.934;2023-05-25T07:36:09;100963.03;;;14.64;59.39
70841;BME280;58465;51.534;9.934;2023-05-25T07:38:35;100967.97;;;14.43;60.54
70841;BME280;58465;51.534;9.934;2023-05-25T07:41:00;100963.69;;;14.35;60.69
70841;BME280;58465;51.534;9.934;2023-05-25T07:43:26;100962.75;;;14.39;60.68
70841;BME280;58465;51.534;9.934;2023-05-25T07:45:51;100959.47;;;14.62;60.11
70841;BME280;58465;51.534;9.934;2023-05-25T07:48:17;100963.16;;;14.59;60.14
70841;BME280;58465;51.534;9.934;2023-05-25T07:50:42;100966.28;;;14.76;59.49
70841;BME280;58465;51.534;9.934;2023-05-25T07:53:07;100972.19;;;14.55;60.07
70841;BME280;58465;51.534;9.934;2023-05-25T07:55:34;100975.44;;;14.69;59.81
70841;BME280;58465;51.534;9.934;2023-05-25T07:57:59;100967.84;;;14.87;58.87
70841;BME280;58465;51.534;9.934;2023-05-25T08:00:24;100974.38;;;14.38;60.40
70841;BME280;58465;51.534;9.934;2023-05-25T08:02:50;100975.38;;;14.71;59.28
70841;BME280;58465;51.534;9.934;2023-05-25T08:05:15;100969.66;;;14.84;58.92
70841;BME280;58465;51.534;9.934;2023-05-25T08:07:41;100972.69;;;15.06;58.03
70841;BME280;58465;51.534;9.934;2023-05-25T08:10:07;100973.59;;;15.07;58.29
70841;BME280;58465;51.534;9.934;2023-05-25T08:12:32;100979.72;;;15.46;57.20
70841;BME280;58465;51.534;9.934;2023-05-25T08:14:58;100978.41;;;15.61;56.75
70841;BME280;58465;51.534;9.934;2023-05-25T08:17:23;100977.25;;;16.00;55.38
70841;BME280;58465;51.534;9.934;2023-05-25T08:19:49;100974.75;;;15.29;56.98
70841;BME280;58465;51.534;9.934;2023-05-25T08:22:14;100984.88;;;15.53;56.65
70841;BME280;58465;51.534;9.934;2023-05-25T08:24:40;100976.97;;;15.15;57.12
70841;BME280;58465;51.534;9.934;2023-05-25T08:27:06;100984.16;;;15.47;56.78
70841;BME280;58465;51.534;9.934;2023-05-25T08:29:31;100989.94;;;15.96;55.37
70841;BME280;58465;51.534;9.934;2023-05-25T08:31:57;100984.53;;;16.54;53.53
70841;BME280;58465;51.534;9.934;2023-05-25T08:34:22;100983.56;;;16.56;53.47
70841;BME280;58465;51.534;9.934;2023-05-25T08:36:48;100978.78;;;16.38;53.85
70841;BME280;58465;51.534;9.934;2023-05-25T08:39:13;100980.97;;;16.53;53.60
70841;BME280;58465;51.534;9.934;2023-05-25T08:41:42;100989.31;;;16.46;52.99
70841;BME280;58465;51.534;9.934;2023-05-25T08:44:07;100987.13;;;16.86;52.29
70841;BME280;58465;51.534;9.934;2023-05-25T08:46:33;100988.34;;;17.02;51.60
70841;BME280;58465;51.534;9.934;2023-05-25T08:49:09;100983.03;;;16.45;52.55
70841;BME280;58465;51.534;9.934;2023-05-25T08:51:36;100988.31;;;16.78;52.29
70841;BME280;58465;51.534;9.934;2023-05-25T08:54:07;100997.78;;;16.91;51.33
70841;BME280;58465;51.534;9.934;2023-05-25T08:56:37;101001.06;;;17.25;50.46
70841;BME280;58465;51.534;9.934;2023-05-25T08:59:24;101002.19;;;17.20;50.64
70841;BME280;58465;51.534;9.934;2023-05-25T09:01:54;101001.09;;;16.99;51.00
70841;BME280;58465;51.534;9.934;2023-05-25T09:04:21;100999.22;;;17.27;51.04
70841;BME280;58465;51.534;9.934;2023-05-25T09:06:47;100998.47;;;17.49;50.04
70841;BME280;58465;51.534;9.934;2023-05-25T09:09:13;100999.34;;;17.74;49.56
70841;BME280;58465;51.534;9.934;2023-05-25T09:11:39;101004.47;;;17.30;49.90
70841;BME280;58465;51.534;9.934;2023-05-25T09:14:06;100994.41;;;16.55;51.36
70841;BME280;58465;51.534;9.934;2023-05-25T09:16:31;100998.56;;;16.93;51.00
70841;BME280;58465;51.534;9.934;2023-05-25T09:18:58;100991.34;;;17.46;50.03
70841;BME280;58465;51.534;9.934;2023-05-25T09:21:24;101006.13;;;17.86;48.34
70841;BME280;58465;51.534;9.934;2023-05-25T09:23:50;101002.69;;;17.56;49.17
70841;BME280;58465;51.534;9.934;2023-05-25T09:26:15;101000.34;;;17.96;48.72
70841;BME280;58465;51.534;9.934;2023-05-25T09:28:45;100999.22;;;17.27;49.90
70841;BME280;58465;51.534;9.934;2023-05-25T09:31:11;101000.13;;;17.77;49.03
70841;BME280;58465;51.534;9.934;2023-05-25T09:33:38;100999.84;;;18.08;47.67
70841;BME280;58465;51.534;9.934;2023-05-25T09:36:05;101009.84;;;18.30;47.29
70841;BME280;58465;51.534;9.934;2023-05-25T09:38:32;101007.72;;;18.61;46.62
70841;BME280;58465;51.534;9.934;2023-05-25T09:40:58;101005.03;;;18.14;47.78
70841;BME280;58465;51.534;9.934;2023-05-25T09:43:23;101000.13;;;18.93;46.05
70841;BME280;58465;51.534;9.934;2023-05-25T09:45:52;100993.66;;;18.95;46.16
70841;BME280;58465;51.534;9.934;2023-05-25T09:48:18;100994.16;;;19.67;44.68
70841;BME280;58465;51.534;9.934;2023-05-25T09:50:45;101001.53;;;18.58;46.61
70841;BME280;58465;51.534;9.934;2023-05-25T09:53:11;101006.72;;;17.94;47.94
70841;BME280;58465;51.534;9.934;2023-05-25T09:55:36;101006.81;;;17.67;48.93
70841;BME280;58465;51.534;9.934;2023-05-25T09:58:02;101001.06;;;17.76;48.54
70841;BME280;58465;51.534;9.934;2023-05-25T10:00:27;101000.69;;;17.62;48.54
70841;BME280;58465;51.534;9.934;2023-05-25T10:02:53;100996.69;;;17.97;48.05
70841;BME280;58465;51.534;9.934;2023-05-25T10:05:18;100996.00;;;17.16;49.80
70841;BME280;58465;51.534;9.934;2023-05-25T10:07:45;100991.34;;;16.67;51.55
70841;BME280;58465;51.534;9.934;2023-05-25T10:10:14;100998.59;;;16.65;51.84
70841;BME280;58465;51.534;9.934;2023-05-25T10:12:43;100989.13;;;17.32;50.36
70841;BME280;58465;51.534;9.934;2023-05-25T10:15:12;100988.66;;;17.71;49.58
70841;BME280;58465;51.534;9.934;2023-05-25T10:17:43;100989.13;;;17.82;49.12
70841;BME280;58465;51.534;9.934;2023-05-25T10:20:10;100992.03;;;17.26;50.62
70841;BME280;58465;51.534;9.934;2023-05-25T10:22:46;100989.78;;;17.65;49.45
70841;BME280;58465;51.534;9.934;2023-05-25T10:27:45;100995.72;;;17.98;49.37
70841;BME280;58465;51.534;9.934;2023-05-25T10:30:13;100989.44;;;17.74;48.88
70841;BME280;58465;51.534;9.934;2023-05-25T10:32:39;100985.03;;;16.94;50.86
70841;BME280;58465;51.534;9.934;2023-05-25T10:35:05;100980.81;;;17.12;50.57
70841;BME280;58465;51.534;9.934;2023-05-25T10:37:33;100985.19;;;17.16;50.80
70841;BME280;58465;51.534;9.934;2023-05-25T10:40:00;100978.56;;;17.76;49.25
70841;BME280;58465;51.534;9.934;2023-05-25T10:42:25;100975.63;;;17.32;49.96
70841;BME280;58465;51.534;9.934;2023-05-25T10:44:52;100969.94;;;17.40;49.99
70841;BME280;58465;51.534;9.934;2023-05-25T10:47:19;100976.47;;;17.84;49.21
70841;BME280;58465;51.534;9.934;2023-05-25T10:49:53;100971.34;;;17.76;49.82
70841;BME280;58465;51.534;9.934;2023-05-25T10:52:19;100970.97;;;17.61;49.49
70841;BME280;58465;51.534;9.934;2023-05-25T10:54:46;100968.47;;;17.56;49.47
70841;BME280;58465;51.534;9.934;2023-05-25T10:57:17;100966.59;;;18.06;48.74
70841;BME280;58465;51.534;9.934;2023-05-25T10:59:46;100969.16;;;18.09;47.67
70841;BME280;58465;51.534;9.934;2023-05-25T11:02:14;100965.69;;;18.29;47.75
70841;BME280;58465;51.534;9.934;2023-05-25T11:04:39;100966.75;;;18.70;47.31
70841;BME280;58465;51.534;9.934;2023-05-25T11:07:06;100967.25;;;18.58;47.01
70841;BME280;58465;51.534;9.934;2023-05-25T11:09:33;100960.47;;;18.46;46.97
70841;BME280;58465;51.534;9.934;2023-05-25T11:12:03;100950.47;;;18.72;46.96
70841;BME280;58465;51.534;9.934;2023-05-25T11:14:30;100948.63;;;18.72;46.57
70841;BME280;58465;51.534;9.934;2023-05-25T11:17:06;100951.50;;;18.68;46.13
70841;BME280;58465;51.534;9.934;2023-05-25T11:19:45;100945.97;;;18.71;46.65
70841;BME280;58465;51.534;9.934;2023-05-25T11:22:30;100944.34;;;19.51;45.04
70841;BME280;58465;51.534;9.934;2023-05-25T11:24:58;100954.06;;;19.94;42.07
70841;BME280;58465;51.534;9.934;2023-05-25T11:27:30;100937.06;;;21.19;40.24
70841;BME280;58465;51.534;9.934;2023-05-25T11:29:57;100942.38;;;21.55;38.97
70841;BME280;58465;51.534;9.934;2023-05-25T11:32:24;100941.41;;;22.69;36.00
70841;BME280;58465;51.534;9.934;2023-05-25T11:34:54;100927.66;;;25.13;32.48
70841;BME280;58465;51.534;9.934;2023-05-25T11:37:21;100939.34;;;24.34;32.67
70841;BME280;58465;51.534;9.934;2023-05-25T11:39:52;100950.06;;;26.21;30.41
70841;BME280;58465;51.534;9.934;2023-05-25T11:42:19;100935.53;;;27.75;28.09
70841;BME280;58465;51.534;9.934;2023-05-25T11:44:44;100936.19;;;25.86;30.08
70841;BME280;58465;51.534;9.934;2023-05-25T11:47:11;100921.84;;;28.19;26.38
70841;BME280;58465;51.534;9.934;2023-05-25T11:49:44;100919.34;;;28.27;26.13
70841;BME280;58465;51.534;9.934;2023-05-25T11:52:12;100924.47;;;28.32;26.52
70841;BME280;58465;51.534;9.934;2023-05-25T11:54:38;100923.09;;;29.86;23.59
70841;BME280;58465;51.534;9.934;2023-05-25T11:57:21;100914.34;;;31.30;21.50
70841;BME280;58465;51.534;9.934;2023-05-25T11:59:52;100913.16;;;29.74;22.90
70841;BME280;58465;51.534;9.934;2023-05-25T12:02:18;100901.38;;;32.06;20.92
70841;BME280;58465;51.534;9.934;2023-05-25T12:05:09;100901.19;;;31.80;21.96
70841;BME280;58465;51.534;9.934;2023-05-25T12:07:41;100916.44;;;30.19;21.98
70841;BME280;58465;51.534;9.934;2023-05-25T12:10:09;100906.78;;;31.32;21.72
70841;BME280;58465;51.534;9.934;2023-05-25T12:12:49;100908.53;;;31.99;21.20
70841;BME280;58465;51.534;9.934;2023-05-25T12:15:23;100920.41;;;30.66;23.17
70841;BME280;58465;51.534;9.934;2023-05-25T12:17:50;100920.13;;;30.39;23.49
70841;BME280;58465;51.534;9.934;2023-05-25T12:20:17;100916.41;;;32.58;21.35
70841;BME280;58465;51.534;9.934;2023-05-25T12:22:44;100910.81;;;32.40;20.58
70841;BME280;58465;51.534;9.934;2023-05-25T12:25:11;100899.91;;;30.59;22.43
70841;BME280;58465;51.534;9.934;2023-05-25T12:27:37;100897.81;;;32.51;20.44
70841;BME280;58465;51.534;9.934;2023-05-25T12:30:05;100894.53;;;31.63;20.97
70841;BME280;58465;51.534;9.934;2023-05-25T12:32:31;100905.47;;;31.26;21.92
70841;BME280;58465;51.534;9.934;2023-05-25T12:35:04;100897.34;;;32.00;20.46
70841;BME280;58465;51.534;9.934;2023-05-25T12:37:29;100902.72;;;32.39;19.75
70841;BME280;58465;51.534;9.934;2023-05-25T12:39:55;100892.00;;;31.89;20.24
70841;BME280;58465;51.534;9.934;2023-05-25T12:42:21;100897.97;;;32.94;19.15
70841;BME280;58465;51.534;9.934;2023-05-25T12:44:53;100899.75;;;33.57;18.40
70841;BME280;58465;51.534;9.934;2023-05-25T12:47:21;100904.28;;;33.40;18.28
70841;BME280;58465;51.534;9.934;2023-05-25T12:49:51;100897.09;;;35.96;15.92
70841;BME280;58465;51.534;9.934;2023-05-25T12:55:18;100896.31;;;35.39;17.36